sensor_id;sensor_type;location;lat;lon;timestamp;P1;durP1;ratioP1;P2;durP2;ratioP2
3297;SDS011;1661;53.572;10.174;2022-07-22T00:00:23;31.40;;;26.83;;
3297;SDS011;1661;53.572;10.174;2022-07-22T00:02:50;27.47;;;23.17;;
3297;SDS011;1661;53.572;10.174;2022-07-22T00:05:17;27.40;;;24.50;;
3297;SDS011;1661;53.572;10.174;2022-07-22T00:07:44;29.97;;;25.93;;
3297;SDS011;1661;53.572;10.174;2022-07-22T00:10:10;35.03;;;28.97;;
3297;SDS011;1661;53.572;10.174;2022-07-22T00:12:40;36.97;;;28.30;;
3297;SDS011;1661;53.572;10.174;2022-07-22T00:15:07;32.83;;;29.33;;
3297;SDS011;1661;53.572;10.174;2022-07-22T00:17:36;32.50;;;27.00;;
3297;SDS011;1661;53.572;10.174;2022-07-22T00:20:04;36.50;;;28.70;;
3297;SDS011;1661;53.572;10.174;2022-07-22T00:22:32;39.70;;;33.47;;
3297;SDS011;1661;53.572;10.174;2022-07-22T00:24:59;33.30;;;26.70;;
3297;SDS011;1661;53.572;10.174;2022-07-22T00:27:26;36.33;;;30.53;;
3297;SDS011;1661;53.572;10.174;2022-07-22T00:29:52;26.53;;;23.83;;
3297;SDS011;1661;53.572;10.174;2022-07-22T00:32:19;28.80;;;25.50;;
3297;SDS011;1661;53.572;10.174;2022-07-22T00:34:47;35.57;;;29.77;;
3297;SDS011;1661;53.572;10.174;2022-07-22T00:37:14;31.40;;;27.13;;
3297;SDS011;1661;53.572;10.174;2022-07-22T00:39:41;27.67;;;24.87;;
3297;SDS011;1661;53.572;10.174;2022-07-22T00:42:14;25.80;;;22.90;;
3297;SDS011;1661;53.572;10.174;2022-07-22T00:44:41;31.33;;;27.70;;
3297;SDS011;1661;53.572;10.174;2022-07-22T00:47:08;33.43;;;23.43;;
3297;SDS011;1661;53.572;10.174;2022-07-22T00:49:36;37.60;;;31.30;;
3297;SDS011;1661;53.572;10.174;2022-07-22T00:52:04;32.00;;;25.47;;
3297;SDS011;1661;53.572;10.174;2022-07-22T00:54:32;30.77;;;25.00;;
3297;SDS011;1661;53.572;10.174;2022-07-22T00:56:59;24.53;;;20.47;;
3297;SDS011;1661;53.572;10.174;2022-07-22T00:59:26;28.03;;;24.10;;
3297;SDS011;1661;53.572;10.174;2022-07-22T01:01:56;25.50;;;22.80;;
3297;SDS011;1661;53.572;10.174;2022-07-22T01:04:22;39.03;;;25.57;;
3297;SDS011;1661;53.572;10.174;2022-07-22T01:06:49;29.03;;;22.70;;
3297;SDS011;1661;53.572;10.174;2022-07-22T01:09:17;27.63;;;21.40;;
3297;SDS011;1661;53.572;10.174;2022-07-22T01:11:44;31.53;;;20.60;;
3297;SDS011;1661;53.572;10.174;2022-07-22T01:14:18;20.17;;;17.90;;
3297;SDS011;1661;53.572;10.174;2022-07-22T01:16:45;21.93;;;17.57;;
3297;SDS011;1661;53.572;10.174;2022-07-22T01:19:12;22.90;;;17.57;;
3297;SDS011;1661;53.572;10.174;2022-07-22T01:21:40;23.30;;;16.30;;
3297;SDS011;1661;53.572;10.174;2022-07-22T01:24:07;24.97;;;15.47;;
3297;SDS011;1661;53.572;10.174;2022-07-22T01:26:39;16.00;;;14.03;;
3297;SDS011;1661;53.572;10.174;2022-07-22T01:29:06;16.30;;;12.37;;
3297;SDS011;1661;53.572;10.174;2022-07-22T01:31:34;9.80;;;8.80;;
3297;SDS011;1661;53.572;10.174;2022-07-22T01:34:00;6.70;;;6.10;;
3297;SDS011;1661;53.572;10.174;2022-07-22T01:36:27;6.90;;;5.70;;
3297;SDS011;1661;53.572;10.174;2022-07-22T01:38:55;6.37;;;5.77;;
3297;SDS011;1661;53.572;10.174;2022-07-22T01:41:22;7.17;;;6.00;;
3297;SDS011;1661;53.572;10.174;2022-07-22T01:43:49;5.83;;;4.13;;
3297;SDS011;1661;53.572;10.174;2022-07-22T01:46:16;4.63;;;4.23;;
3297;SDS011;1661;53.572;10.174;2022-07-22T01:48:43;7.37;;;4.40;;
3297;SDS011;1661;53.572;10.174;2022-07-22T01:51:10;8.20;;;3.30;;
3297;SDS011;1661;53.572;10.174;2022-07-22T01:53:37;4.40;;;4.00;;
3297;SDS011;1661;53.572;10.174;2022-07-22T01:56:05;6.37;;;3.63;;
3297;SDS011;1661;53.572;10.174;2022-07-22T01:58:32;4.10;;;3.70;;
3297;SDS011;1661;53.572;10.174;2022-07-22T02:00:59;6.93;;;4.00;;
3297;SDS011;1661;53.572;10.174;2022-07-22T02:03:26;6.63;;;4.50;;
3297;SDS011;1661;53.572;10.174;2022-07-22T02:05:52;6.80;;;4.50;;
3297;SDS011;1661;53.572;10.174;2022-07-22T02:08:19;6.87;;;5.07;;
3297;SDS011;1661;53.572;10.174;2022-07-22T02:10:46;6.90;;;5.97;;
3297;SDS011;1661;53.572;10.174;2022-07-22T02:13:14;5.73;;;4.23;;
3297;SDS011;1661;53.572;10.174;2022-07-22T02:15:41;9.93;;;4.20;;
3297;SDS011;1661;53.572;10.174;2022-07-22T02:18:12;10.60;;;4.70;;
3297;SDS011;1661;53.572;10.174;2022-07-22T02:20:40;7.90;;;5.53;;
3297;SDS011;1661;53.572;10.174;2022-07-22T02:23:06;12.13;;;8.37;;
3297;SDS011;1661;53.572;10.174;2022-07-22T02:25:33;13.30;;;8.97;;
3297;SDS011;1661;53.572;10.174;2022-07-22T02:28:00;20.30;;;11.13;;
3297;SDS011;1661;53.572;10.174;2022-07-22T02:30:29;24.53;;;10.97;;
3297;SDS011;1661;53.572;10.174;2022-07-22T02:32:55;15.37;;;9.67;;
3297;SDS011;1661;53.572;10.174;2022-07-22T02:35:22;18.87;;;10.33;;
3297;SDS011;1661;53.572;10.174;2022-07-22T02:37:49;16.23;;;9.40;;
3297;SDS011;1661;53.572;10.174;2022-07-22T02:40:16;19.80;;;9.03;;
3297;SDS011;1661;53.572;10.174;2022-07-22T02:42:43;10.30;;;9.20;;
3297;SDS011;1661;53.572;10.174;2022-07-22T02:45:10;15.40;;;10.63;;
3297;SDS011;1661;53.572;10.174;2022-07-22T02:47:47;15.13;;;8.73;;
3297;SDS011;1661;53.572;10.174;2022-07-22T02:50:15;18.20;;;8.57;;
3297;SDS011;1661;53.572;10.174;2022-07-22T02:52:42;19.80;;;8.43;;
3297;SDS011;1661;53.572;10.174;2022-07-22T02:55:09;13.97;;;8.07;;
3297;SDS011;1661;53.572;10.174;2022-07-22T02:57:36;22.40;;;8.90;;
3297;SDS011;1661;53.572;10.174;2022-07-22T03:00:03;13.13;;;8.73;;
3297;SDS011;1661;53.572;10.174;2022-07-22T03:02:31;8.77;;;6.30;;
3297;SDS011;1661;53.572;10.174;2022-07-22T03:04:59;11.60;;;6.70;;
3297;SDS011;1661;53.572;10.174;2022-07-22T03:07:29;8.27;;;5.57;;
3297;SDS011;1661;53.572;10.174;2022-07-22T03:09:58;19.77;;;7.63;;
3297;SDS011;1661;53.572;10.174;2022-07-22T03:12:24;12.03;;;5.77;;
3297;SDS011;1661;53.572;10.174;2022-07-22T03:14:51;18.70;;;7.10;;
3297;SDS011;1661;53.572;10.174;2022-07-22T03:17:18;21.77;;;6.50;;
3297;SDS011;1661;53.572;10.174;2022-07-22T03:19:45;7.40;;;4.60;;
3297;SDS011;1661;53.572;10.174;2022-07-22T03:22:13;11.97;;;5.60;;
3297;SDS011;1661;53.572;10.174;2022-07-22T03:24:39;10.53;;;6.17;;
3297;SDS011;1661;53.572;10.174;2022-07-22T03:27:06;9.30;;;5.67;;
3297;SDS011;1661;53.572;10.174;2022-07-22T03:29:33;11.73;;;5.27;;
3297;SDS011;1661;53.572;10.174;2022-07-22T03:32:00;7.60;;;4.77;;
3297;SDS011;1661;53.572;10.174;2022-07-22T03:34:26;16.90;;;4.97;;
3297;SDS011;1661;53.572;10.174;2022-07-22T03:36:53;16.20;;;5.20;;
3297;SDS011;1661;53.572;10.174;2022-07-22T03:39:21;12.03;;;4.80;;
3297;SDS011;1661;53.572;10.174;2022-07-22T03:41:49;9.27;;;4.63;;
3297;SDS011;1661;53.572;10.174;2022-07-22T03:44:16;11.43;;;4.10;;
3297;SDS011;1661;53.572;10.174;2022-07-22T03:46:42;4.77;;;4.00;;
3297;SDS011;1661;53.572;10.174;2022-07-22T03:49:09;12.53;;;4.40;;
3297;SDS011;1661;53.572;10.174;2022-07-22T03:51:36;6.20;;;3.60;;
3297;SDS011;1661;53.572;10.174;2022-07-22T03:54:03;13.47;;;3.53;;
3297;SDS011;1661;53.572;10.174;2022-07-22T03:56:31;9.70;;;3.93;;
3297;SDS011;1661;53.572;10.174;2022-07-22T03:58:58;14.93;;;5.20;;
3297;SDS011;1661;53.572;10.174;2022-07-22T04:01:25;3.90;;;3.50;;
3297;SDS011;1661;53.572;10.174;2022-07-22T04:03:51;5.20;;;3.20;;
3297;SDS011;1661;53.572;10.174;2022-07-22T04:06:20;17.03;;;4.70;;
3297;SDS011;1661;53.572;10.174;2022-07-22T04:08:47;9.87;;;4.37;;
3297;SDS011;1661;53.572;10.174;2022-07-22T04:11:14;8.23;;;3.17;;
3297;SDS011;1661;53.572;10.174;2022-07-22T04:13:42;7.40;;;4.00;;
3297;SDS011;1661;53.572;10.174;2022-07-22T04:16:09;7.50;;;3.60;;
3297;SDS011;1661;53.572;10.174;2022-07-22T04:18:38;9.33;;;3.80;;
3297;SDS011;1661;53.572;10.174;2022-07-22T04:21:05;7.03;;;3.67;;
3297;SDS011;1661;53.572;10.174;2022-07-22T04:23:35;3.67;;;3.30;;
3297;SDS011;1661;53.572;10.174;2022-07-22T04:26:04;7.00;;;3.43;;
3297;SDS011;1661;53.572;10.174;2022-07-22T04:28:32;11.57;;;4.83;;
3297;SDS011;1661;53.572;10.174;2022-07-22T04:31:03;11.50;;;3.00;;
3297;SDS011;1661;53.572;10.174;2022-07-22T04:33:30;5.73;;;4.00;;
3297;SDS011;1661;53.572;10.174;2022-07-22T04:35:57;6.40;;;3.03;;
3297;SDS011;1661;53.572;10.174;2022-07-22T04:38:27;6.43;;;3.50;;
3297;SDS011;1661;53.572;10.174;2022-07-22T04:40:54;9.03;;;3.30;;
3297;SDS011;1661;53.572;10.174;2022-07-22T04:43:21;9.50;;;4.60;;
3297;SDS011;1661;53.572;10.174;2022-07-22T04:45:48;7.13;;;3.70;;
3297;SDS011;1661;53.572;10.174;2022-07-22T04:48:16;22.73;;;4.00;;
3297;SDS011;1661;53.572;10.174;2022-07-22T04:50:43;12.10;;;3.60;;
3297;SDS011;1661;53.572;10.174;2022-07-22T04:53:10;9.40;;;4.57;;
3297;SDS011;1661;53.572;10.174;2022-07-22T04:55:37;17.07;;;4.43;;
3297;SDS011;1661;53.572;10.174;2022-07-22T04:58:04;10.70;;;4.60;;
3297;SDS011;1661;53.572;10.174;2022-07-22T05:00:33;4.80;;;4.23;;
3297;SDS011;1661;53.572;10.174;2022-07-22T05:03:03;8.53;;;3.60;;
3297;SDS011;1661;53.572;10.174;2022-07-22T05:05:31;13.00;;;5.07;;
3297;SDS011;1661;53.572;10.174;2022-07-22T05:07:58;11.23;;;4.47;;
3297;SDS011;1661;53.572;10.174;2022-07-22T05:10:25;6.20;;;2.67;;
3297;SDS011;1661;53.572;10.174;2022-07-22T05:12:52;7.60;;;3.40;;
3297;SDS011;1661;53.572;10.174;2022-07-22T05:15:19;7.93;;;3.20;;
3297;SDS011;1661;53.572;10.174;2022-07-22T05:17:46;3.03;;;2.33;;
3297;SDS011;1661;53.572;10.174;2022-07-22T05:20:12;5.83;;;3.03;;
3297;SDS011;1661;53.572;10.174;2022-07-22T05:22:42;4.13;;;2.83;;
3297;SDS011;1661;53.572;10.174;2022-07-22T05:25:09;8.10;;;3.77;;
3297;SDS011;1661;53.572;10.174;2022-07-22T05:27:36;2.83;;;2.50;;
3297;SDS011;1661;53.572;10.174;2022-07-22T05:30:03;3.27;;;2.30;;
3297;SDS011;1661;53.572;10.174;2022-07-22T05:32:31;3.90;;;2.50;;
3297;SDS011;1661;53.572;10.174;2022-07-22T05:34:57;8.40;;;3.00;;
3297;SDS011;1661;53.572;10.174;2022-07-22T05:37:27;4.70;;;3.50;;
3297;SDS011;1661;53.572;10.174;2022-07-22T05:39:55;10.70;;;3.67;;
3297;SDS011;1661;53.572;10.174;2022-07-22T05:42:22;7.13;;;3.10;;
3297;SDS011;1661;53.572;10.174;2022-07-22T05:44:51;10.13;;;3.93;;
3297;SDS011;1661;53.572;10.174;2022-07-22T05:47:18;8.83;;;4.70;;
3297;SDS011;1661;53.572;10.174;2022-07-22T05:49:45;11.57;;;4.30;;
3297;SDS011;1661;53.572;10.174;2022-07-22T05:52:11;19.83;;;4.07;;
3297;SDS011;1661;53.572;10.174;2022-07-22T05:54:38;6.47;;;3.47;;
3297;SDS011;1661;53.572;10.174;2022-07-22T05:57:07;12.50;;;4.93;;
3297;SDS011;1661;53.572;10.174;2022-07-22T05:59:34;23.33;;;4.63;;
3297;SDS011;1661;53.572;10.174;2022-07-22T06:02:01;12.03;;;4.40;;
3297;SDS011;1661;53.572;10.174;2022-07-22T06:04:31;7.33;;;4.50;;
3297;SDS011;1661;53.572;10.174;2022-07-22T06:06:58;13.80;;;4.27;;
3297;SDS011;1661;53.572;10.174;2022-07-22T06:09:24;10.60;;;3.83;;
3297;SDS011;1661;53.572;10.174;2022-07-22T06:11:51;16.77;;;5.17;;
3297;SDS011;1661;53.572;10.174;2022-07-22T06:14:19;8.23;;;4.10;;
3297;SDS011;1661;53.572;10.174;2022-07-22T06:16:46;12.70;;;4.27;;
3297;SDS011;1661;53.572;10.174;2022-07-22T06:19:13;15.07;;;5.30;;
3297;SDS011;1661;53.572;10.174;2022-07-22T06:21:40;11.80;;;4.83;;
3297;SDS011;1661;53.572;10.174;2022-07-22T06:24:07;22.17;;;6.03;;
3297;SDS011;1661;53.572;10.174;2022-07-22T06:26:33;16.53;;;5.53;;
3297;SDS011;1661;53.572;10.174;2022-07-22T06:29:00;24.47;;;5.50;;
3297;SDS011;1661;53.572;10.174;2022-07-22T06:31:30;15.17;;;5.03;;
3297;SDS011;1661;53.572;10.174;2022-07-22T06:33:57;7.77;;;4.13;;
3297;SDS011;1661;53.572;10.174;2022-07-22T06:36:24;9.40;;;4.83;;
3297;SDS011;1661;53.572;10.174;2022-07-22T06:38:50;9.07;;;4.80;;
3297;SDS011;1661;53.572;10.174;2022-07-22T06:41:20;13.40;;;6.40;;
3297;SDS011;1661;53.572;10.174;2022-07-22T06:43:47;23.87;;;4.90;;
3297;SDS011;1661;53.572;10.174;2022-07-22T06:46:13;20.53;;;5.40;;
3297;SDS011;1661;53.572;10.174;2022-07-22T06:48:41;15.03;;;5.70;;
3297;SDS011;1661;53.572;10.174;2022-07-22T06:51:08;16.37;;;5.47;;
3297;SDS011;1661;53.572;10.174;2022-07-22T06:53:35;16.00;;;4.83;;
3297;SDS011;1661;53.572;10.174;2022-07-22T06:56:02;17.67;;;6.03;;
3297;SDS011;1661;53.572;10.174;2022-07-22T06:58:29;12.03;;;5.13;;
3297;SDS011;1661;53.572;10.174;2022-07-22T07:00:56;13.43;;;6.30;;
3297;SDS011;1661;53.572;10.174;2022-07-22T07:03:23;13.33;;;5.60;;
3297;SDS011;1661;53.572;10.174;2022-07-22T07:05:52;13.10;;;6.10;;
3297;SDS011;1661;53.572;10.174;2022-07-22T07:08:19;24.50;;;5.77;;
3297;SDS011;1661;53.572;10.174;2022-07-22T07:10:45;16.40;;;4.83;;
3297;SDS011;1661;53.572;10.174;2022-07-22T07:13:13;18.90;;;5.20;;
3297;SDS011;1661;53.572;10.174;2022-07-22T07:15:40;15.70;;;5.00;;
3297;SDS011;1661;53.572;10.174;2022-07-22T07:18:07;21.53;;;5.53;;
3297;SDS011;1661;53.572;10.174;2022-07-22T07:20:33;19.37;;;5.07;;
3297;SDS011;1661;53.572;10.174;2022-07-22T07:23:02;23.13;;;4.80;;
3297;SDS011;1661;53.572;10.174;2022-07-22T07:25:29;18.57;;;5.83;;
3297;SDS011;1661;53.572;10.174;2022-07-22T07:27:58;11.83;;;4.50;;
3297;SDS011;1661;53.572;10.174;2022-07-22T07:30:25;13.40;;;4.70;;
3297;SDS011;1661;53.572;10.174;2022-07-22T07:32:52;11.90;;;5.03;;
3297;SDS011;1661;53.572;10.174;2022-07-22T07:35:21;19.30;;;5.93;;
3297;SDS011;1661;53.572;10.174;2022-07-22T07:37:51;15.13;;;5.13;;
3297;SDS011;1661;53.572;10.174;2022-07-22T07:40:19;18.63;;;5.20;;
3297;SDS011;1661;53.572;10.174;2022-07-22T07:42:46;15.53;;;5.20;;
3297;SDS011;1661;53.572;10.174;2022-07-22T07:45:13;14.23;;;5.10;;
3297;SDS011;1661;53.572;10.174;2022-07-22T07:47:40;14.80;;;4.40;;
3297;SDS011;1661;53.572;10.174;2022-07-22T07:50:07;10.33;;;4.43;;
3297;SDS011;1661;53.572;10.174;2022-07-22T07:52:36;24.30;;;4.50;;
3297;SDS011;1661;53.572;10.174;2022-07-22T07:55:04;9.67;;;3.80;;
3297;SDS011;1661;53.572;10.174;2022-07-22T07:57:33;13.80;;;5.17;;
3297;SDS011;1661;53.572;10.174;2022-07-22T08:00:00;14.33;;;4.63;;
3297;SDS011;1661;53.572;10.174;2022-07-22T08:02:27;22.03;;;5.93;;
3297;SDS011;1661;53.572;10.174;2022-07-22T08:04:54;14.70;;;5.60;;
3297;SDS011;1661;53.572;10.174;2022-07-22T08:07:20;17.97;;;4.60;;
3297;SDS011;1661;53.572;10.174;2022-07-22T08:09:47;14.67;;;4.97;;
3297;SDS011;1661;53.572;10.174;2022-07-22T08:12:14;17.47;;;4.73;;
3297;SDS011;1661;53.572;10.174;2022-07-22T08:14:42;12.23;;;4.17;;
3297;SDS011;1661;53.572;10.174;2022-07-22T08:17:09;10.13;;;4.43;;
3297;SDS011;1661;53.572;10.174;2022-07-22T08:19:36;13.70;;;5.00;;
3297;SDS011;1661;53.572;10.174;2022-07-22T08:22:02;23.83;;;4.73;;
3297;SDS011;1661;53.572;10.174;2022-07-22T08:24:31;14.13;;;4.77;;
3297;SDS011;1661;53.572;10.174;2022-07-22T08:26:59;19.07;;;3.57;;
3297;SDS011;1661;53.572;10.174;2022-07-22T08:29:25;16.40;;;4.60;;
3297;SDS011;1661;53.572;10.174;2022-07-22T08:31:53;22.43;;;5.07;;
3297;SDS011;1661;53.572;10.174;2022-07-22T08:34:20;13.30;;;3.77;;
3297;SDS011;1661;53.572;10.174;2022-07-22T08:36:47;18.43;;;4.40;;
3297;SDS011;1661;53.572;10.174;2022-07-22T08:39:14;16.43;;;4.17;;
3297;SDS011;1661;53.572;10.174;2022-07-22T08:41:41;6.17;;;3.90;;
3297;SDS011;1661;53.572;10.174;2022-07-22T08:44:08;11.37;;;4.00;;
3297;SDS011;1661;53.572;10.174;2022-07-22T08:46:36;10.13;;;4.03;;
3297;SDS011;1661;53.572;10.174;2022-07-22T08:49:04;10.13;;;2.77;;
3297;SDS011;1661;53.572;10.174;2022-07-22T08:51:31;6.90;;;3.17;;
3297;SDS011;1661;53.572;10.174;2022-07-22T08:53:59;11.10;;;3.80;;
3297;SDS011;1661;53.572;10.174;2022-07-22T08:56:28;11.70;;;3.60;;
3297;SDS011;1661;53.572;10.174;2022-07-22T08:58:55;6.07;;;3.23;;
3297;SDS011;1661;53.572;10.174;2022-07-22T09:01:22;7.50;;;3.07;;
3297;SDS011;1661;53.572;10.174;2022-07-22T09:03:51;6.70;;;2.80;;
3297;SDS011;1661;53.572;10.174;2022-07-22T09:06:22;10.33;;;3.57;;
3297;SDS011;1661;53.572;10.174;2022-07-22T09:08:54;13.57;;;3.43;;
3297;SDS011;1661;53.572;10.174;2022-07-22T09:11:22;9.03;;;2.77;;
3297;SDS011;1661;53.572;10.174;2022-07-22T09:13:55;18.53;;;3.87;;
3297;SDS011;1661;53.572;10.174;2022-07-22T09:19:13;7.07;;;2.63;;
3297;SDS011;1661;53.572;10.174;2022-07-22T09:21:44;11.60;;;3.10;;
3297;SDS011;1661;53.572;10.174;2022-07-22T09:24:25;7.53;;;2.80;;
3297;SDS011;1661;53.572;10.174;2022-07-22T09:26:53;6.63;;;3.67;;
3297;SDS011;1661;53.572;10.174;2022-07-22T09:29:21;14.27;;;3.70;;
3297;SDS011;1661;53.572;10.174;2022-07-22T09:31:49;8.13;;;2.67;;
3297;SDS011;1661;53.572;10.174;2022-07-22T09:34:25;4.63;;;2.30;;
3297;SDS011;1661;53.572;10.174;2022-07-22T09:36:55;9.30;;;3.10;;
3297;SDS011;1661;53.572;10.174;2022-07-22T09:39:25;10.70;;;2.83;;
3297;SDS011;1661;53.572;10.174;2022-07-22T09:41:56;5.03;;;2.50;;
3297;SDS011;1661;53.572;10.174;2022-07-22T09:44:23;9.73;;;3.40;;
3297;SDS011;1661;53.572;10.174;2022-07-22T09:46:50;10.57;;;3.33;;
3297;SDS011;1661;53.572;10.174;2022-07-22T09:49:29;5.93;;;2.33;;
3297;SDS011;1661;53.572;10.174;2022-07-22T09:51:58;11.43;;;3.60;;
3297;SDS011;1661;53.572;10.174;2022-07-22T09:54:26;9.43;;;2.93;;
3297;SDS011;1661;53.572;10.174;2022-07-22T09:56:56;8.17;;;3.40;;
3297;SDS011;1661;53.572;10.174;2022-07-22T09:59:24;7.93;;;2.67;;
3297;SDS011;1661;53.572;10.174;2022-07-22T10:01:53;4.90;;;2.60;;
3297;SDS011;1661;53.572;10.174;2022-07-22T10:04:23;7.50;;;2.90;;
3297;SDS011;1661;53.572;10.174;2022-07-22T10:06:51;18.03;;;3.00;;
3297;SDS011;1661;53.572;10.174;2022-07-22T10:09:21;5.93;;;2.60;;
3297;SDS011;1661;53.572;10.174;2022-07-22T10:11:49;4.90;;;2.20;;
3297;SDS011;1661;53.572;10.174;2022-07-22T10:14:22;9.40;;;2.93;;
3297;SDS011;1661;53.572;10.174;2022-07-22T10:16:50;11.73;;;3.17;;
3297;SDS011;1661;53.572;10.174;2022-07-22T10:19:17;7.77;;;2.67;;
3297;SDS011;1661;53.572;10.174;2022-07-22T10:21:44;8.97;;;3.67;;
3297;SDS011;1661;53.572;10.174;2022-07-22T10:24:11;6.67;;;2.43;;
3297;SDS011;1661;53.572;10.174;2022-07-22T10:26:50;15.33;;;3.30;;
3297;SDS011;1661;53.572;10.174;2022-07-22T10:29:28;16.83;;;2.67;;
3297;SDS011;1661;53.572;10.174;2022-07-22T10:37:49;6.40;;;2.40;;
3297;SDS011;1661;53.572;10.174;2022-07-22T10:40:18;14.87;;;3.30;;
3297;SDS011;1661;53.572;10.174;2022-07-22T10:45:36;6.57;;;2.53;;
3297;SDS011;1661;53.572;10.174;2022-07-22T10:48:05;7.57;;;2.43;;
3297;SDS011;1661;53.572;10.174;2022-07-22T10:53:41;6.67;;;3.00;;
3297;SDS011;1661;53.572;10.174;2022-07-22T10:56:13;10.93;;;2.47;;
3297;SDS011;1661;53.572;10.174;2022-07-22T10:58:47;6.50;;;2.47;;
3297;SDS011;1661;53.572;10.174;2022-07-22T11:01:21;12.23;;;3.47;;
3297;SDS011;1661;53.572;10.174;2022-07-22T11:03:49;8.63;;;3.90;;
3297;SDS011;1661;53.572;10.174;2022-07-22T11:06:18;18.60;;;3.40;;
3297;SDS011;1661;53.572;10.174;2022-07-22T11:08:48;9.03;;;2.30;;
3297;SDS011;1661;53.572;10.174;2022-07-22T11:11:17;9.80;;;2.43;;
3297;SDS011;1661;53.572;10.174;2022-07-22T11:13:44;14.27;;;3.23;;
3297;SDS011;1661;53.572;10.174;2022-07-22T11:16:17;7.93;;;2.80;;
3297;SDS011;1661;53.572;10.174;2022-07-22T11:18:45;7.83;;;2.57;;
3297;SDS011;1661;53.572;10.174;2022-07-22T11:21:18;9.07;;;2.20;;
3297;SDS011;1661;53.572;10.174;2022-07-22T11:23:47;4.87;;;2.43;;
3297;SDS011;1661;53.572;10.174;2022-07-22T11:26:16;7.63;;;3.10;;
3297;SDS011;1661;53.572;10.174;2022-07-22T11:28:44;7.23;;;2.77;;
3297;SDS011;1661;53.572;10.174;2022-07-22T11:31:13;7.27;;;2.20;;
3297;SDS011;1661;53.572;10.174;2022-07-22T11:33:43;5.27;;;1.87;;
3297;SDS011;1661;53.572;10.174;2022-07-22T11:36:10;4.87;;;2.10;;
3297;SDS011;1661;53.572;10.174;2022-07-22T11:38:44;6.23;;;2.17;;
3297;SDS011;1661;53.572;10.174;2022-07-22T11:41:14;8.63;;;2.10;;
3297;SDS011;1661;53.572;10.174;2022-07-22T11:43:43;6.83;;;2.07;;
3297;SDS011;1661;53.572;10.174;2022-07-22T11:46:12;6.30;;;2.60;;
3297;SDS011;1661;53.572;10.174;2022-07-22T11:48:39;16.80;;;3.63;;
3297;SDS011;1661;53.572;10.174;2022-07-22T11:51:08;5.97;;;2.13;;
3297;SDS011;1661;53.572;10.174;2022-07-22T11:53:36;8.63;;;2.60;;
3297;SDS011;1661;53.572;10.174;2022-07-22T11:56:04;12.23;;;2.70;;
3297;SDS011;1661;53.572;10.174;2022-07-22T11:58:33;5.70;;;2.23;;
3297;SDS011;1661;53.572;10.174;2022-07-22T12:01:00;12.83;;;2.43;;
3297;SDS011;1661;53.572;10.174;2022-07-22T12:03:27;4.30;;;2.43;;
3297;SDS011;1661;53.572;10.174;2022-07-22T12:05:54;9.07;;;2.77;;
3297;SDS011;1661;53.572;10.174;2022-07-22T12:08:23;6.70;;;2.40;;
3297;SDS011;1661;53.572;10.174;2022-07-22T12:10:50;11.90;;;2.97;;
3297;SDS011;1661;53.572;10.174;2022-07-22T12:13:16;12.67;;;2.90;;
3297;SDS011;1661;53.572;10.174;2022-07-22T12:15:43;11.47;;;3.10;;
3297;SDS011;1661;53.572;10.174;2022-07-22T12:18:19;4.07;;;2.17;;
3297;SDS011;1661;53.572;10.174;2022-07-22T12:20:48;7.37;;;2.73;;
3297;SDS011;1661;53.572;10.174;2022-07-22T12:23:15;5.77;;;2.20;;
3297;SDS011;1661;53.572;10.174;2022-07-22T12:25:58;7.00;;;2.50;;
3297;SDS011;1661;53.572;10.174;2022-07-22T12:28:25;4.27;;;2.60;;
3297;SDS011;1661;53.572;10.174;2022-07-22T12:30:53;6.00;;;2.23;;
3297;SDS011;1661;53.572;10.174;2022-07-22T12:33:21;6.33;;;2.30;;
3297;SDS011;1661;53.572;10.174;2022-07-22T12:35:58;7.77;;;2.33;;
3297;SDS011;1661;53.572;10.174;2022-07-22T12:38:30;12.83;;;3.77;;
3297;SDS011;1661;53.572;10.174;2022-07-22T12:43:50;8.63;;;2.60;;
3297;SDS011;1661;53.572;10.174;2022-07-22T12:46:17;6.47;;;2.60;;
3297;SDS011;1661;53.572;10.174;2022-07-22T12:48:48;6.53;;;2.50;;
3297;SDS011;1661;53.572;10.174;2022-07-22T12:51:16;7.80;;;2.70;;
3297;SDS011;1661;53.572;10.174;2022-07-22T12:53:43;6.23;;;2.20;;
3297;SDS011;1661;53.572;10.174;2022-07-22T12:56:10;5.83;;;2.93;;
3297;SDS011;1661;53.572;10.174;2022-07-22T12:58:38;6.60;;;2.20;;
3297;SDS011;1661;53.572;10.174;2022-07-22T13:01:06;6.03;;;2.30;;
3297;SDS011;1661;53.572;10.174;2022-07-22T13:03:33;8.73;;;1.80;;
3297;SDS011;1661;53.572;10.174;2022-07-22T13:06:01;10.77;;;3.20;;
3297;SDS011;1661;53.572;10.174;2022-07-22T13:08:30;8.50;;;2.60;;
3297;SDS011;1661;53.572;10.174;2022-07-22T13:10:57;4.90;;;2.40;;
3297;SDS011;1661;53.572;10.174;2022-07-22T13:13:24;6.33;;;2.80;;
3297;SDS011;1661;53.572;10.174;2022-07-22T13:15:52;7.10;;;2.13;;
3297;SDS011;1661;53.572;10.174;2022-07-22T13:18:19;8.60;;;2.93;;
3297;SDS011;1661;53.572;10.174;2022-07-22T13:20:46;3.33;;;2.03;;
3297;SDS011;1661;53.572;10.174;2022-07-22T13:23:12;8.33;;;2.60;;
3297;SDS011;1661;53.572;10.174;2022-07-22T13:25:39;3.80;;;1.80;;
3297;SDS011;1661;53.572;10.174;2022-07-22T13:28:06;12.80;;;2.40;;
3297;SDS011;1661;53.572;10.174;2022-07-22T13:30:33;7.13;;;2.60;;
3297;SDS011;1661;53.572;10.174;2022-07-22T13:33:01;5.30;;;1.80;;
3297;SDS011;1661;53.572;10.174;2022-07-22T13:35:28;6.67;;;2.30;;
3297;SDS011;1661;53.572;10.174;2022-07-22T13:37:55;10.60;;;2.47;;
3297;SDS011;1661;53.572;10.174;2022-07-22T13:40:22;8.50;;;2.47;;
3297;SDS011;1661;53.572;10.174;2022-07-22T13:42:49;10.77;;;2.37;;
3297;SDS011;1661;53.572;10.174;2022-07-22T13:45:16;3.63;;;2.20;;
3297;SDS011;1661;53.572;10.174;2022-07-22T13:47:43;1.70;;;1.60;;
3297;SDS011;1661;53.572;10.174;2022-07-22T13:50:11;5.77;;;2.07;;
3297;SDS011;1661;53.572;10.174;2022-07-22T13:52:37;5.97;;;2.50;;
3297;SDS011;1661;53.572;10.174;2022-07-22T13:55:05;6.53;;;2.57;;
3297;SDS011;1661;53.572;10.174;2022-07-22T13:57:32;5.00;;;2.10;;
3297;SDS011;1661;53.572;10.174;2022-07-22T14:00:00;9.33;;;2.10;;
3297;SDS011;1661;53.572;10.174;2022-07-22T14:02:27;5.20;;;2.10;;
3297;SDS011;1661;53.572;10.174;2022-07-22T14:04:53;8.80;;;2.20;;
3297;SDS011;1661;53.572;10.174;2022-07-22T14:07:21;10.10;;;2.23;;
3297;SDS011;1661;53.572;10.174;2022-07-22T14:09:48;5.40;;;2.20;;
3297;SDS011;1661;53.572;10.174;2022-07-22T14:12:15;4.60;;;2.30;;
3297;SDS011;1661;53.572;10.174;2022-07-22T14:14:42;6.97;;;2.53;;
3297;SDS011;1661;53.572;10.174;2022-07-22T14:17:09;9.90;;;2.40;;
3297;SDS011;1661;53.572;10.174;2022-07-22T14:19:36;4.80;;;2.40;;
3297;SDS011;1661;53.572;10.174;2022-07-22T14:22:03;7.43;;;2.60;;
3297;SDS011;1661;53.572;10.174;2022-07-22T14:24:31;4.50;;;2.40;;
3297;SDS011;1661;53.572;10.174;2022-07-22T14:26:57;5.13;;;2.50;;
3297;SDS011;1661;53.572;10.174;2022-07-22T14:29:24;9.80;;;2.67;;
3297;SDS011;1661;53.572;10.174;2022-07-22T14:31:51;8.47;;;3.17;;
3297;SDS011;1661;53.572;10.174;2022-07-22T14:34:18;4.30;;;2.00;;
3297;SDS011;1661;53.572;10.174;2022-07-22T14:36:44;7.23;;;2.53;;
3297;SDS011;1661;53.572;10.174;2022-07-22T14:39:11;4.60;;;2.20;;
3297;SDS011;1661;53.572;10.174;2022-07-22T14:41:39;8.77;;;2.00;;
3297;SDS011;1661;53.572;10.174;2022-07-22T14:44:06;11.93;;;2.17;;
3297;SDS011;1661;53.572;10.174;2022-07-22T14:46:33;10.00;;;2.70;;
3297;SDS011;1661;53.572;10.174;2022-07-22T14:48:59;5.23;;;2.00;;
3297;SDS011;1661;53.572;10.174;2022-07-22T14:51:26;6.10;;;1.80;;
3297;SDS011;1661;53.572;10.174;2022-07-22T14:53:53;6.17;;;1.77;;
3297;SDS011;1661;53.572;10.174;2022-07-22T14:56:20;5.87;;;2.00;;
3297;SDS011;1661;53.572;10.174;2022-07-22T14:58:48;7.20;;;3.20;;
3297;SDS011;1661;53.572;10.174;2022-07-22T15:01:15;8.63;;;2.63;;
3297;SDS011;1661;53.572;10.174;2022-07-22T15:03:41;5.17;;;1.90;;
3297;SDS011;1661;53.572;10.174;2022-07-22T15:06:08;4.70;;;1.90;;
3297;SDS011;1661;53.572;10.174;2022-07-22T15:08:35;6.57;;;3.07;;
3297;SDS011;1661;53.572;10.174;2022-07-22T15:11:02;5.27;;;2.60;;
3297;SDS011;1661;53.572;10.174;2022-07-22T15:13:29;4.47;;;1.93;;